Time;durP1;ratioP1;P1;durP2;ratioP2;P2;SDS_P1;SDS_P2;PMS_P1;PMS_P2;Temp;Humidity;BMP_temperature;BMP_pressure;BME280_temperature;BME280_humidity;BME280_pressure;Samples;Min_cycle;Max_cycle;Signal;HPM_P1;HPM_P2
2023/04/01 00:00:38;;;;;;;;;;;;;;;8.26;85.32;98110.59;5114518;28;19926;-65
2023/04/01 00:03:07;;;;;;;;;;;;;;;8.19;85.19;98113.22;5114496;28;19969;-64
2023/04/01 00:05:35;;;;;;;;;;;;;;;8.13;85.58;98115.00;5114294;28;19920;-65
2023/04/01 00:08:04;;;;;;;;;;;;;;;8.11;86.45;98124.34;5114396;28;19920;-65
2023/04/01 00:10:33;;;;;;;;;;;;;;;8.08;86.29;98119.34;5114306;28;20445;-65
2023/04/01 00:13:03;;;;;;;;;;;;;;;8.06;86.85;98120.22;5114723;28;19920;-65
2023/04/01 00:15:31;;;;;;;;;;;;;;;8.02;86.71;98123.66;5113463;28;19973;-65
2023/04/01 00:18:00;;;;;;;;;;;;;;;7.98;86.60;98120.34;5114662;28;19919;-65
2023/04/01 00:20:29;;;;;;;;;;;;;;;7.98;85.97;98117.81;5114290;28;19919;-65
2023/04/01 00:22:58;;;;;;;;;;;;;;;7.92;86.81;98122.97;5114553;28;19977;-65
2023/04/01 00:25:26;;;;;;;;;;;;;;;7.81;85.72;98119.75;5114682;28;19959;-65
2023/04/01 00:27:55;;;;;;;;;;;;;;;7.77;85.46;98118.13;5113378;28;20270;-65
2023/04/01 00:30:25;;;;;;;;;;;;;;;7.78;86.47;98109.63;5112802;28;20361;-65
2023/04/01 00:32:53;;;;;;;;;;;;;;;7.77;86.44;98117.28;5113017;28;19919;-65
2023/04/01 00:35:22;;;;;;;;;;;;;;;7.79;86.21;98110.47;5114455;28;20418;-65
2023/04/01 00:37:50;;;;;;;;;;;;;;;7.78;86.24;98118.94;5114090;28;19926;-65
2023/04/01 00:40:25;;;;;;;;;;;;;;;7.78;85.87;98113.88;5114106;28;19964;-65
2023/04/01 00:42:54;;;;;;;;;;;;;;;7.79;85.69;98118.09;5112948;28;19920;-65
2023/04/01 00:45:32;;;;;;;;;;;;;;;7.83;85.95;98117.19;5114042;28;20010;-65
2023/04/01 00:48:03;;;;;;;;;;;;;;;7.85;86.62;98125.59;5112814;28;20018;-65
2023/04/01 00:50:32;;;;;;;;;;;;;;;7.91;85.84;98130.63;5113978;28;19919;-65
2023/04/01 00:53:01;;;;;;;;;;;;;;;7.92;86.14;98128.03;5113090;28;19959;-65
2023/04/01 00:55:32;;;;;;;;;;;;;;;7.89;86.02;98134.88;5117014;28;20377;-65
2023/04/01 00:58:03;;;;;;;;;;;;;;;7.89;85.91;98132.34;5116709;28;19919;-65
2023/04/01 01:00:33;;;;;;;;;;;;;;;7.92;85.45;98125.50;5117891;28;19920;-65
2023/04/01 01:03:02;;;;;;;;;;;;;;;7.94;85.51;98135.66;5116740;28;20385;-65
2023/04/01 01:05:39;;;;;;;;;;;;;;;7.95;85.90;98133.09;5118065;28;20018;-65
2023/04/01 01:08:23;;;;;;;;;;;;;;;7.95;86.10;98133.09;5117671;28;20007;-65
2023/04/01 01:10:51;;;;;;;;;;;;;;;7.96;85.66;98132.22;5116398;28;19977;-65
2023/04/01 01:13:26;;;;;;;;;;;;;;;8.00;86.06;98130.47;5116762;28;19942;-65
2023/04/01 01:16:00;;;;;;;;;;;;;;;8.01;85.92;98127.06;5117615;28;20259;-65
2023/04/01 01:18:35;;;;;;;;;;;;;;;8.01;86.43;98132.97;5116588;28;20250;-65
2023/04/01 01:21:22;;;;;;;;;;;;;;;8.02;86.15;98127.03;5117009;28;19920;-65
2023/04/01 01:24:03;;;;;;;;;;;;;;;8.06;86.42;98121.03;5117363;28;19919;-66
2023/04/01 01:26:38;;;;;;;;;;;;;;;8.06;85.97;98115.97;5117442;28;19947;-65
2023/04/01 01:29:14;;;;;;;;;;;;;;;8.05;86.83;98114.31;5116841;28;19920;-65
2023/04/01 01:31:47;;;;;;;;;;;;;;;8.02;85.79;98114.34;5116126;28;19972;-66
2023/04/01 01:34:21;;;;;;;;;;;;;;;8.02;86.52;98109.25;5116422;28;19924;-65
2023/04/01 01:36:55;;;;;;;;;;;;;;;8.03;87.19;98116.03;5115984;28;20010;-65
2023/04/01 01:39:27;;;;;;;;;;;;;;;8.07;87.16;98117.66;5115941;28;19947;-65
2023/04/01 01:41:57;;;;;;;;;;;;;;;8.11;86.53;98114.19;5117112;28;19969;-65
2023/04/01 01:44:27;;;;;;;;;;;;;;;8.08;86.61;98124.41;5116118;28;20370;-65
2023/04/01 01:46:57;;;;;;;;;;;;;;;8.04;86.89;98127.00;5117058;28;19976;-65
2023/04/01 01:49:27;;;;;;;;;;;;;;;8.03;87.09;98121.13;5115881;28;19963;-65
2023/04/01 01:51:57;;;;;;;;;;;;;;;8.05;87.09;98114.31;5115985;28;19976;-65
2023/04/01 01:54:26;;;;;;;;;;;;;;;8.02;87.53;98123.66;5116843;28;20014;-65
2023/04/01 01:57:02;;;;;;;;;;;;;;;7.99;87.24;98119.47;5115842;28;19920;-65
2023/04/01 01:59:32;;;;;;;;;;;;;;;8.00;87.70;98118.63;5115571;28;19920;-66
2023/04/01 02:02:07;;;;;;;;;;;;;;;8.05;88.12;98114.31;5115664;28;19919;-65
2023/04/01 02:04:37;;;;;;;;;;;;;;;8.07;86.94;98110.03;5115537;28;20401;-66
2023/04/01 02:07:08;;;;;;;;;;;;;;;8.09;87.43;98123.53;5115801;28;19919;-65
2023/04/01 02:09:39;;;;;;;;;;;;;;;8.07;87.21;98117.66;5115297;28;19920;-65
2023/04/01 02:12:10;;;;;;;;;;;;;;;8.04;87.64;98117.69;5116383;28;19926;-65
2023/04/01 02:14:44;;;;;;;;;;;;;;;8.05;86.83;98111.75;5116723;28;20281;-65
2023/04/01 02:17:16;;;;;;;;;;;;;;;8.06;87.45;98115.97;5115260;28;19926;-65
2023/04/01 02:19:47;;;;;;;;;;;;;;;8.09;87.23;98110.00;5115225;28;19965;-65
2023/04/01 02:22:19;;;;;;;;;;;;;;;8.12;87.68;98102.31;5115103;28;19962;-65
2023/04/01 02:24:49;;;;;;;;;;;;;;;8.15;87.24;98102.28;5116625;28;19920;-65
2023/04/01 02:27:18;;;;;;;;;;;;;;;8.17;87.56;98104.78;5116803;28;20258;-65
2023/04/01 02:29:46;;;;;;;;;;;;;;;8.25;87.75;98100.44;5114595;28;19924;-65
2023/04/01 02:32:15;;;;;;;;;;;;;;;8.33;87.95;98098.59;5114863;28;20358;-65
2023/04/01 02:34:44;;;;;;;;;;;;;;;8.34;87.56;98095.22;5115152;28;19926;-65
2023/04/01 02:37:14;;;;;;;;;;;;;;;8.37;88.24;98093.47;5116226;28;19920;-65
2023/04/01 02:39:44;;;;;;;;;;;;;;;8.38;87.82;98102.75;5098013;28;19973;-65
2023/04/01 02:42:12;;;;;;;;;;;;;;;8.40;87.88;98108.66;5116168;28;19989;-65
2023/04/01 02:44:41;;;;;;;;;;;;;;;8.44;87.77;98112.00;5115790;28;19943;-65
2023/04/01 02:47:10;;;;;;;;;;;;;;;8.41;87.53;98106.94;5114581;28;19962;-65
2023/04/01 02:49:38;;;;;;;;;;;;;;;8.38;86.64;98107.00;5114895;28;19920;-65
2023/04/01 02:52:07;;;;;;;;;;;;;;;8.38;87.41;98101.91;5114288;28;19919;-65
2023/04/01 02:54:35;;;;;;;;;;;;;;;8.36;87.87;98098.56;5115401;28;20292;-65
2023/04/01 02:57:05;;;;;;;;;;;;;;;8.34;86.87;98096.06;5114435;28;20027;-65
2023/04/01 02:59:34;;;;;;;;;;;;;;;8.29;86.66;98091.91;5114365;28;19920;-66
2023/04/01 03:02:02;;;;;;;;;;;;;;;8.26;86.68;98097.88;5115542;28;20438;-65
2023/04/01 03:04:31;;;;;;;;;;;;;;;8.25;86.43;98100.44;5113943;28;19920;-65
2023/04/01 03:06:59;;;;;;;;;;;;;;;8.15;87.21;98091.28;5115611;28;20351;-65
2023/04/01 03:09:28;;;;;;;;;;;;;;;8.07;87.00;98089.72;5115636;28;20012;-65
2023/04/01 03:11:57;;;;;;;;;;;;;;;7.99;86.77;98094.06;5114141;28;19923;-65
2023/04/01 03:14:27;;;;;;;;;;;;;;;7.93;87.19;98089.09;5115162;28;19926;-65
2023/04/01 03:16:55;;;;;;;;;;;;;;;7.88;87.11;98095.09;5114017;28;19920;-65
2023/04/01 03:19:24;;;;;;;;;;;;;;;7.79;87.26;98091.00;5115182;28;19965;-65
2023/04/01 03:21:53;;;;;;;;;;;;;;;7.74;86.78;98097.00;5114249;28;20429;-65
2023/04/01 03:24:21;;;;;;;;;;;;;;;7.72;86.87;98093.66;5115664;28;20331;-65
2023/04/01 03:26:50;;;;;;;;;;;;;;;7.72;86.78;98091.97;5113838;28;19920;-65
2023/04/01 03:29:19;;;;;;;;;;;;;;;7.73;86.93;98092.78;5114869;28;20352;-65
2023/04/01 03:31:49;;;;;;;;;;;;;;;7.67;86.89;98091.19;5113960;28;19955;-65
2023/04/01 03:34:18;;;;;;;;;;;;;;;7.55;86.39;98091.38;5115699;28;19972;-65
2023/04/01 03:36:46;;;;;;;;;;;;;;;7.53;86.58;98093.09;5115255;28;20024;-65
2023/04/01 03:39:18;;;;;;;;;;;;;;;7.52;86.54;98091.41;5113629;28;20011;-65
2023/04/01 03:41:47;;;;;;;;;;;;;;;7.42;86.92;98100.00;5113658;28;19920;-65
2023/04/01 03:44:15;;;;;;;;;;;;;;;7.31;85.99;98092.56;5114662;28;19943;-65
2023/04/01 03:46:47;;;;;;;;;;;;;;;7.24;86.75;98090.13;5113587;28;19924;-66
2023/04/01 03:49:19;;;;;;;;;;;;;;;7.19;86.68;98096.94;5114726;28;19919;-65
2023/04/01 03:51:48;;;;;;;;;;;;;;;7.12;86.25;98100.41;5113445;28;19920;-65
2023/04/01 03:54:16;;;;;;;;;;;;;;;7.14;86.94;98108.84;5113326;28;19919;-65
2023/04/01 03:56:45;;;;;;;;;;;;;;;7.07;86.33;98108.09;5113556;28;19972;-65
2023/04/01 03:59:14;;;;;;;;;;;;;;;7.01;86.16;98118.28;5113354;28;19965;-65
2023/04/01 04:01:42;;;;;;;;;;;;;;;6.90;85.82;98124.34;5114490;28;19927;-65
2023/04/01 04:04:12;;;;;;;;;;;;;;;6.79;85.87;98121.09;5113369;28;19926;-65
2023/04/01 04:06:43;;;;;;;;;;;;;;;6.83;85.35;98130.34;5114796;28;19923;-66
2023/04/01 04:09:12;;;;;;;;;;;;;;;6.86;86.15;98122.72;5113310;28;19926;-65
2023/04/01 04:11:41;;;;;;;;;;;;;;;6.87;86.51;98130.28;5114332;28;19920;-65
2023/04/01 04:14:09;;;;;;;;;;;;;;;6.86;86.53;98137.94;5114727;28;19947;-65
2023/04/01 04:16:38;;;;;;;;;;;;;;;6.83;87.10;98128.66;5113090;28;19920;-65
2023/04/01 04:19:07;;;;;;;;;;;;;;;6.79;86.86;98136.31;5113201;28;19930;-65
2023/04/01 04:21:35;;;;;;;;;;;;;;;6.82;86.80;98136.25;5113143;28;19956;-65
2023/04/01 04:24:06;;;;;;;;;;;;;;;6.85;87.05;98136.25;5113104;28;19956;-65
2023/04/01 04:26:57;;;;;;;;;;;;;;;6.82;87.12;98137.09;5114129;28;20398;-65
2023/04/01 04:29:25;;;;;;;;;;;;;;;6.77;86.94;98138.03;5116159;28;19923;-65
2023/04/01 04:31:54;;;;;;;;;;;;;;;6.80;87.81;98141.34;5118246;28;19920;-65
2023/04/01 04:34:24;;;;;;;;;;;;;;;6.84;87.96;98139.66;5117184;28;19951;-66
2023/04/01 04:36:52;;;;;;;;;;;;;;;6.84;87.01;98139.66;5118436;27;20039;-65
2023/04/01 04:39:27;;;;;;;;;;;;;;;6.85;87.65;98143.84;5118574;28;20012;-65
2023/04/01 04:41:56;;;;;;;;;;;;;;;6.85;87.13;98141.31;5117122;28;19920;-66
2023/04/01 04:44:25;;;;;;;;;;;;;;;6.83;88.01;98146.41;5118556;28;19973;-65
2023/04/01 04:46:53;;;;;;;;;;;;;;;6.86;87.95;98143.00;5118409;28;20427;-65
2023/04/01 04:49:25;;;;;;;;;;;;;;;6.87;88.54;98144.66;5116909;28;19958;-65
2023/04/01 04:51:54;;;;;;;;;;;;;;;6.89;88.67;98137.88;5116992;28;19920;-65
2023/04/01 04:54:27;;;;;;;;;;;;;;;6.93;88.31;98134.47;5118058;28;19926;-65
2023/04/01 04:56:58;;;;;;;;;;;;;;;7.00;88.91;98138.63;5117098;28;19923;-65
2023/04/01 04:59:30;;;;;;;;;;;;;;;7.01;88.63;98128.44;5118170;28;20297;-66
2023/04/01 05:02:12;;;;;;;;;;;;;;;7.06;88.27;98141.06;5118253;28;20024;-65
2023/04/01 05:04:41;;;;;;;;;;;;;;;7.15;89.07;98151.13;5117834;28;19926;-65
2023/04/01 05:07:11;;;;;;;;;;;;;;;7.21;89.02;98143.44;5116888;28;19955;-65
2023/04/01 05:09:41;;;;;;;;;;;;;;;7.24;88.58;98134.09;5117627;28;20381;-65
2023/04/01 05:12:11;;;;;;;;;;;;;;;7.31;89.37;98137.38;5116231;28;19942;-66
2023/04/01 05:15:08;;;;;;;;;;;;;;;7.44;89.14;98146.50;5116431;28;19920;-65
2023/04/01 05:17:36;;;;;;;;;;;;;;;7.47;89.17;98138.00;5116669;28;20258;-67
2023/04/01 05:20:05;;;;;;;;;;;;;;;7.55;88.87;98144.69;5116238;28;20365;-66
2023/04/01 05:22:34;;;;;;;;;;;;;;;7.64;88.86;98136.94;5116298;28;19919;-67
2023/04/01 05:25:04;;;;;;;;;;;;;;;7.78;89.10;98129.94;5117420;28;20015;-67
2023/04/01 05:27:32;;;;;;;;;;;;;;;7.88;88.34;98135.72;5116679;28;19920;-65
2023/04/01 05:30:01;;;;;;;;;;;;;;;8.03;87.81;98121.13;5115836;28;19919;-65
2023/04/01 05:32:41;;;;;;;;;;;;;;;8.25;87.61;98125.84;5117198;28;19920;-65
2023/04/01 05:35:09;;;;;;;;;;;;;;;8.40;87.35;98140.84;5116013;28;19919;-65
2023/04/01 05:37:38;;;;;;;;;;;;;;;8.47;87.50;98142.44;5117453;28;20432;-65
2023/04/01 05:40:09;;;;;;;;;;;;;;;8.64;86.94;98140.41;5114720;28;19920;-65
2023/04/01 05:42:37;;;;;;;;;;;;;;;8.77;86.99;98142.72;5115637;28;19924;-65
2023/04/01 05:45:08;;;;;;;;;;;;;;;8.79;86.42;98147.78;5117188;28;19920;-65
2023/04/01 05:47:47;;;;;;;;;;;;;;;8.80;86.11;98146.09;5117076;28;19965;-65
2023/04/01 05:50:19;;;;;;;;;;;;;;;8.81;84.97;98142.66;5117186;28;19923;-65
2023/04/01 05:52:47;;;;;;;;;;;;;;;8.80;84.99;98146.94;5116447;28;19919;-67
2023/04/01 05:55:18;;;;;;;;;;;;;;;8.80;85.90;98146.09;5115628;28;19969;-65
2023/04/01 05:57:48;;;;;;;;;;;;;;;8.83;85.53;98151.13;5116580;28;19968;-65
2023/04/01 06:00:17;;;;;;;;;;;;;;;8.83;85.43;98157.03;5115499;28;19920;-65
2023/04/01 06:02:46;;;;;;;;;;;;;;;8.87;85.23;98163.75;5116959;28;20361;-65
2023/04/01 06:05:18;;;;;;;;;;;;;;;8.81;84.61;98171.47;5115819;28;20362;-65
2023/04/01 06:07:46;;;;;;;;;;;;;;;8.77;84.83;98167.31;5116951;28;19920;-64
2023/04/01 06:10:17;;;;;;;;;;;;;;;8.74;84.81;98169.91;5115264;28;19969;-65
2023/04/01 06:12:52;;;;;;;;;;;;;;;8.76;84.43;98170.72;5116367;28;19919;-64
2023/04/01 06:15:25;;;;;;;;;;;;;;;8.73;84.24;98175.88;5115186;28;20014;-65
2023/04/01 06:18:02;;;;;;;;;;;;;;;8.73;84.35;98173.34;5115191;28;19926;-64
2023/04/01 06:20:37;;;;;;;;;;;;;;;8.73;84.49;98176.69;5116398;28;20323;-64
2023/04/01 06:23:12;;;;;;;;;;;;;;;8.72;84.80;98185.22;5115058;28;20018;-64
2023/04/01 06:25:49;;;;;;;;;;;;;;;8.71;84.66;98175.88;5115468;28;19923;-64
2023/04/01 06:28:31;;;;;;;;;;;;;;;8.78;84.32;98179.19;5114966;28;19927;-64
2023/04/01 06:31:06;;;;;;;;;;;;;;;8.91;84.10;98170.44;5115247;28;20297;-65
2023/04/01 06:33:51;;;;;;;;;;;;;;;9.10;83.97;98166.69;5111415;28;20373;-64
2023/04/01 06:36:28;;;;;;;;;;;;;;;9.28;83.50;98166.34;5114820;28;19965;-64
2023/04/01 06:39:03;;;;;;;;;;;;;;;9.48;83.01;98163.38;5114825;28;20399;-64
2023/04/01 06:41:43;;;;;;;;;;;;;;;9.68;82.88;98168.06;5116356;27;19969;-65
2023/04/01 06:44:19;;;;;;;;;;;;;;;9.85;82.97;98165.97;5114688;28;19927;-65
2023/04/01 06:47:00;;;;;;;;;;;;;;;10.01;82.20;98164.75;5116106;28;20285;-65
2023/04/01 06:49:49;;;;;;;;;;;;;;;10.16;81.82;98159.34;5115987;28;19919;-65
2023/04/01 06:52:32;;;;;;;;;;;;;;;10.28;80.97;98164.16;5114575;28;19964;-64
2023/04/01 06:55:21;;;;;;;;;;;;;;;10.41;80.85;98157.88;5115551;28;19920;-65
2023/04/01 06:58:20;;;;;;;;;;;;;;;10.55;79.96;98168.59;5115610;28;20011;-65
2023/04/01 07:00:53;;;;;;;;;;;;;;;10.68;79.05;98169.09;5115924;28;19931;-65
2023/04/01 07:03:24;;;;;;;;;;;;;;;10.86;78.53;98157.59;5115689;28;20365;-64
2023/04/01 07:05:55;;;;;;;;;;;;;;;10.99;78.00;98164.84;5114663;28;19920;-65
2023/04/01 07:08:25;;;;;;;;;;;;;;;11.10;77.35;98170.53;5114493;28;20011;-65
2023/04/01 07:10:56;;;;;;;;;;;;;;;11.16;76.63;98172.06;5114143;28;19927;-66
2023/04/01 07:13:47;;;;;;;;;;;;;;;11.21;75.93;98180.44;5112871;27;19957;-64
2023/04/01 07:16:19;;;;;;;;;;;;;;;11.25;75.47;98167.53;5111569;28;19928;-64
2023/04/01 07:18:51;;;;;;;;;;;;;;;11.28;75.61;98171.72;5110565;28;20435;-65
2023/04/01 07:21:30;;;;;;;;;;;;;;;11.29;75.56;98174.25;5111871;28;19956;-66
2023/04/01 07:24:06;;;;;;;;;;;;;;;11.33;75.54;98165.63;5111617;28;19931;-65
2023/04/01 07:26:44;;;;;;;;;;;;;;;11.38;75.36;98168.03;5111620;28;19924;-64
2023/04/01 07:29:20;;;;;;;;;;;;;;;11.41;75.05;98173.06;5110155;28;20319;-65
2023/04/01 07:32:04;;;;;;;;;;;;;;;11.45;74.62;98174.66;5111830;28;19924;-64
2023/04/01 07:34:39;;;;;;;;;;;;;;;11.51;73.93;98169.38;5111498;28;20019;-65
2023/04/01 07:37:12;;;;;;;;;;;;;;;11.59;73.36;98172.53;5111460;28;19974;-64
2023/04/01 07:39:47;;;;;;;;;;;;;;;11.59;72.85;98172.53;5110575;28;20344;-65
2023/04/01 07:42:27;;;;;;;;;;;;;;;11.63;72.35;98173.28;5111777;28;20358;-65
2023/04/01 07:45:01;;;;;;;;;;;;;;;11.67;72.18;98170.59;5110431;28;20351;-65
2023/04/01 07:47:35;;;;;;;;;;;;;;;11.79;71.95;98164.31;5109982;28;19930;-65
2023/04/01 07:50:10;;;;;;;;;;;;;;;11.92;72.02;98168.19;5110343;28;19938;-65
2023/04/01 07:52:44;;;;;;;;;;;;;;;12.00;72.02;98174.72;5111104;28;19959;-66
2023/04/01 07:55:23;;;;;;;;;;;;;;;12.09;71.61;98174.44;5111067;28;19966;-66
2023/04/01 07:57:58;;;;;;;;;;;;;;;12.14;71.22;98176.03;5110269;28;20419;-65
2023/04/01 08:00:33;;;;;;;;;;;;;;;12.22;71.27;98181.72;5110990;28;19924;-65
2023/04/01 08:03:21;;;;;;;;;;;;;;;12.26;70.76;98181.56;5111319;28;20097;-65
2023/04/01 08:05:56;;;;;;;;;;;;;;;12.31;70.54;98184.03;5110961;28;19924;-64
2023/04/01 08:08:32;;;;;;;;;;;;;;;12.31;70.31;98189.94;5111089;28;19928;-66
2023/04/01 08:11:23;;;;;;;;;;;;;;;12.30;70.29;98187.44;5110851;28;20008;-66
2023/04/01 08:14:09;;;;;;;;;;;;;;;12.33;70.31;98203.56;5090211;28;19924;-65
2023/04/01 08:16:56;;;;;;;;;;;;;;;12.35;70.61;98195.81;5090337;28;19982;-66
2023/04/01 08:19:39;;;;;;;;;;;;;;;12.45;70.33;98202.31;5090246;28;19924;-64
2023/04/01 08:22:11;;;;;;;;;;;;;;;12.64;70.04;98198.28;5090177;28;19931;-65
2023/04/01 08:24:42;;;;;;;;;;;;;;;12.84;70.13;98183.06;5079317;28;20267;-66
2023/04/01 08:27:26;;;;;;;;;;;;;;;13.11;69.49;98171.94;5060346;28;20007;-66
2023/04/01 08:29:59;;;;;;;;;;;;;;;13.30;69.49;98174.66;5076998;28;19935;-65
2023/04/01 08:32:33;;;;;;;;;;;;;;;13.40;69.24;98174.28;5076342;28;19931;-65
2023/04/01 08:35:08;;;;;;;;;;;;;;;13.41;68.71;98177.69;5075621;28;20375;-67
2023/04/01 08:37:41;;;;;;;;;;;;;;;13.35;68.46;98183.88;5075321;28;19931;-65
2023/04/01 08:40:34;;;;;;;;;;;;;;;13.30;68.13;98175.50;5109456;28;20299;-64
2023/04/01 08:43:09;;;;;;;;;;;;;;;13.27;68.04;98179.88;5074973;28;20374;-66
2023/04/01 08:45:48;;;;;;;;;;;;;;;13.28;68.11;98184.97;5075439;28;19925;-65
2023/04/01 08:48:29;;;;;;;;;;;;;;;13.34;68.32;98192.44;5076330;28;19924;-65
2023/04/01 08:51:09;;;;;;;;;;;;;;;13.30;68.10;98201.13;5076840;28;19924;-65
2023/04/01 08:54:00;;;;;;;;;;;;;;;13.33;68.21;98201.03;5076162;28;19931;-64
2023/04/01 08:56:35;;;;;;;;;;;;;;;13.31;68.07;98202.81;5074626;28;19928;-64
2023/04/01 08:59:18;;;;;;;;;;;;;;;13.26;67.58;98204.69;5058544;28;20370;-65
2023/04/01 09:01:57;;;;;;;;;;;;;;;13.26;67.44;98202.13;5075202;28;19932;-64
2023/04/01 09:04:48;;;;;;;;;;;;;;;13.24;67.21;98201.38;5075900;28;20434;-64
2023/04/01 09:07:26;;;;;;;;;;;;;;;13.31;67.19;98202.81;5075048;28;19932;-65
2023/04/01 09:10:16;;;;;;;;;;;;;;;13.38;66.81;98196.59;5076199;28;19928;-65
2023/04/01 09:12:55;;;;;;;;;;;;;;;13.45;66.39;98199.75;5086929;28;19924;-65
2023/04/01 09:15:37;;;;;;;;;;;;;;;13.48;66.30;98199.66;5095996;28;19924;-66
2023/04/01 09:18:14;;;;;;;;;;;;;;;13.48;65.94;98203.94;5096242;28;20444;-64
2023/04/01 09:20:53;;;;;;;;;;;;;;;13.46;65.92;98210.84;5096049;28;20262;-65
2023/04/01 09:23:35;;;;;;;;;;;;;;;13.35;66.33;98208.66;5129184;27;19924;-65
2023/04/01 09:26:11;;;;;;;;;;;;;;;13.38;66.70;98208.56;5094592;28;20370;-64
2023/04/01 09:28:44;;;;;;;;;;;;;;;13.34;66.48;98205.25;5094558;28;19928;-65
2023/04/01 09:31:22;;;;;;;;;;;;;;;13.38;66.55;98214.50;5094409;28;20007;-64
2023/04/01 09:34:12;;;;;;;;;;;;;;;13.40;66.24;98212.72;5095639;28;19967;-65
2023/04/01 09:37:01;;;;;;;;;;;;;;;13.47;66.45;98212.50;5095066;28;19959;-66
2023/04/01 09:39:38;;;;;;;;;;;;;;;13.61;66.19;98207.69;5094658;28;19947;-65
2023/04/01 09:42:28;;;;;;;;;;;;;;;13.69;66.41;98208.28;5095440;28;19924;-65
2023/04/01 09:45:09;;;;;;;;;;;;;;;13.76;65.89;98210.56;5094577;28;19949;-65
2023/04/01 09:47:47;;;;;;;;;;;;;;;13.95;66.06;98221.78;5094124;28;20012;-65
2023/04/01 09:50:30;;;;;;;;;;;;;;;14.09;65.15;98216.13;5094197;28;19928;-65
2023/04/01 09:53:05;;;;;;;;;;;;;;;14.09;64.58;98203.31;5094264;28;19966;-65
2023/04/01 09:58:39;;;;;;;;;;;;;;;14.31;64.21;98204.19;5112919;27;20415;-65
2023/04/01 10:01:43;;;;;;;;;;;;;;;14.33;63.74;98207.53;5110805;28;19939;-65
2023/04/01 10:04:32;;;;;;;;;;;;;;;14.21;63.62;98207.97;5096010;28;20390;-65
2023/04/01 10:07:12;;;;;;;;;;;;;;;14.27;63.74;98222.28;5109055;28;19930;-65
2023/04/01 10:09:51;;;;;;;;;;;;;;;14.30;63.61;98212.75;5110758;28;20301;-65
2023/04/01 10:12:33;;;;;;;;;;;;;;;14.34;63.70;98214.34;5110487;28;19924;-64
2023/04/01 10:15:22;;;;;;;;;;;;;;;14.24;63.25;98209.56;5111901;28;20019;-64
2023/04/01 10:18:04;;;;;;;;;;;;;;;14.13;62.94;98210.00;5110294;28;19978;-65
2023/04/01 10:20:46;;;;;;;;;;;;;;;14.05;62.78;98214.59;5110637;28;19924;-65
2023/04/01 10:23:25;;;;;;;;;;;;;;;14.03;62.99;98209.53;5110475;28;20366;-65
2023/04/01 10:26:09;;;;;;;;;;;;;;;14.05;62.49;98214.59;5111635;28;20275;-65
2023/04/01 10:28:47;;;;;;;;;;;;;;;14.05;62.60;98215.44;5110206;28;19973;-64
2023/04/01 10:31:57;;;;;;;;;;;;;;;13.96;62.85;98217.50;5110911;28;19950;-64
2023/04/01 10:34:41;;;;;;;;;;;;;;;13.94;63.09;98214.19;5110895;28;20316;-64
2023/04/01 10:37:17;;;;;;;;;;;;;;;13.97;63.06;98208.91;5109852;28;19934;-65
2023/04/01 10:40:03;;;;;;;;;;;;;;;14.02;62.97;98212.13;5110205;28;19926;-65
2023/04/01 10:43:03;;;;;;;;;;;;;;;14.17;63.06;98216.69;5111879;28;19924;-64
2023/04/01 10:46:00;;;;;;;;;;;;;;;14.28;62.16;98214.53;5110147;28;19947;-65
2023/04/01 10:48:46;;;;;;;;;;;;;;;14.33;62.23;98212.66;5090495;28;19985;-65
2023/04/01 10:51:21;;;;;;;;;;;;;;;14.36;61.55;98204.84;5109813;28;20327;-64
2023/04/01 10:54:00;;;;;;;;;;;;;;;14.43;61.79;98213.13;5109678;28;19927;-65
2023/04/01 10:56:38;;;;;;;;;;;;;;;14.47;61.52;98210.38;5114635;28;20498;-65
2023/04/01 10:59:28;;;;;;;;;;;;;;;14.49;61.06;98203.44;5131290;28;19924;-64
2023/04/01 11:02:37;;;;;;;;;;;;;;;14.50;60.67;98200.00;5131158;28;19927;-65
2023/04/01 11:05:27;;;;;;;;;;;;;;;14.56;60.67;98199.75;5131138;28;19976;-65
2023/04/01 11:08:19;;;;;;;;;;;;;;;14.62;60.47;98191.78;5109051;28;19924;-65
2023/04/01 11:11:00;;;;;;;;;;;;;;;14.67;60.21;98195.00;5117273;28;19930;-65
2023/04/01 11:13:41;;;;;;;;;;;;;;;14.66;60.03;98201.03;5117298;28;19928;-65
2023/04/01 11:16:20;;;;;;;;;;;;;;;14.64;60.27;98187.41;5117516;28;20034;-64
2023/04/01 11:19:06;;;;;;;;;;;;;;;14.58;60.04;98192.81;5098898;28;19966;-65
2023/04/01 11:21:49;;;;;;;;;;;;;;;14.55;60.15;98192.94;5088500;28;19963;-64
2023/04/01 11:24:32;;;;;;;;;;;;;;;14.53;59.83;98194.72;5117304;28;19947;-64
2023/04/01 11:27:21;;;;;;;;;;;;;;;14.45;59.37;98191.63;5117022;28;19923;-64
2023/04/01 11:30:02;;;;;;;;;;;;;;;14.33;59.37;98192.13;5116917;28;19923;-65
2023/04/01 11:32:45;;;;;;;;;;;;;;;14.28;59.89;98191.44;5117080;28;20357;-64
2023/04/01 11:35:27;;;;;;;;;;;;;;;14.24;60.12;98194.19;5099049;28;19973;-65
2023/04/01 11:37:59;;;;;;;;;;;;;;;14.19;60.16;98194.38;5132916;27;19930;-65
2023/04/01 11:40:59;;;;;;;;;;;;;;;14.23;60.33;98193.34;5092760;28;19976;-65
2023/04/01 11:43:41;;;;;;;;;;;;;;;14.30;60.34;98192.22;5117083;28;19927;-65
2023/04/01 11:46:25;;;;;;;;;;;;;;;14.33;59.65;98186.97;5116584;28;19951;-64
2023/04/01 11:49:01;;;;;;;;;;;;;;;14.38;60.26;98199.63;5098389;28;20014;-64
2023/04/01 11:51:46;;;;;;;;;;;;;;;14.40;60.02;98183.28;5116806;28;20285;-65
2023/04/01 11:54:23;;;;;;;;;;;;;;;14.40;59.69;98188.41;5116356;28;20019;-65
2023/04/01 11:57:02;;;;;;;;;;;;;;;14.53;60.01;98189.59;5116723;28;19973;-65
2023/04/01 11:59:43;;;;;;;;;;;;;;;14.66;59.44;98195.09;5116548;28;19927;-65
2023/04/01 12:02:18;;;;;;;;;;;;;;;14.69;59.07;98184.66;5116547;28;19923;-65
2023/04/01 12:04:56;;;;;;;;;;;;;;;14.71;59.69;98178.56;5116276;28;19969;-64
2023/04/01 12:07:37;;;;;;;;;;;;;;;14.73;59.52;98181.91;5116540;28;20019;-64
2023/04/01 12:10:17;;;;;;;;;;;;;;;14.62;59.44;98191.78;5116184;28;19989;-64
2023/04/01 12:12:55;;;;;;;;;;;;;;;14.45;59.37;98186.50;5116391;28;20034;-64
2023/04/01 12:15:33;;;;;;;;;;;;;;;14.36;59.20;98192.00;5116312;28;20431;-64
2023/04/01 12:18:09;;;;;;;;;;;;;;;14.24;59.48;98197.59;5115925;28;19968;-64
2023/04/01 12:20:44;;;;;;;;;;;;;;;14.19;59.68;98194.38;5115116;28;20010;-65
2023/04/01 12:23:21;;;;;;;;;;;;;;;14.16;60.22;98207.31;5116212;28;20364;-66
2023/04/01 12:26:00;;;;;;;;;;;;;;;14.06;61.54;98209.38;5115785;28;19924;-67
2023/04/01 12:28:38;;;;;;;;;;;;;;;14.02;61.54;98204.44;5116142;28;19923;-66
2023/04/01 12:31:15;;;;;;;;;;;;;;;13.98;62.53;98203.75;5115878;28;19955;-66
2023/04/01 12:33:53;;;;;;;;;;;;;;;13.88;63.10;98209.25;5115559;28;19931;-66
2023/04/01 12:36:33;;;;;;;;;;;;;;;13.77;64.83;98206.28;5115985;28;19967;-65
2023/04/01 12:39:20;;;;;;;;;;;;;;;13.57;66.79;98208.72;5115573;28;20035;-65
2023/04/01 12:41:54;;;;;;;;;;;;;;;13.35;67.80;98213.78;5115765;28;20022;-65
2023/04/01 12:44:35;;;;;;;;;;;;;;;13.27;68.88;98211.47;5097724;28;20006;-65
2023/04/01 12:47:14;;;;;;;;;;;;;;;13.26;69.34;98221.78;5115400;28;20037;-66
2023/04/01 12:49:56;;;;;;;;;;;;;;;13.17;69.40;98225.50;5115705;28;19931;-65
2023/04/01 12:52:36;;;;;;;;;;;;;;;12.98;69.19;98232.09;5115356;28;19924;-64
2023/04/01 12:55:16;;;;;;;;;;;;;;;12.77;69.19;98225.13;5115240;28;20412;-66
2023/04/01 12:57:56;;;;;;;;;;;;;;;12.67;69.12;98229.72;5114843;28;19927;-65
2023/04/01 13:00:33;;;;;;;;;;;;;;;12.55;69.64;98242.06;5115563;28;19946;-66
2023/04/01 13:03:08;;;;;;;;;;;;;;;12.42;70.49;98233.13;5115380;28;19928;-66
2023/04/01 13:05:54;;;;;;;;;;;;;;;12.41;71.47;98241.66;5115278;28;19924;-66
2023/04/01 13:08:32;;;;;;;;;;;;;;;12.41;71.45;98241.66;5090876;28;19923;-67
2023/04/01 13:11:10;;;;;;;;;;;;;;;12.37;72.32;98230.69;5114990;28;19934;-66
2023/04/01 13:13:50;;;;;;;;;;;;;;;12.38;72.86;98226.44;5115324;28;19930;-66
2023/04/01 13:16:21;;;;;;;;;;;;;;;12.43;73.27;98229.69;5115190;28;20457;-66
2023/04/01 13:18:56;;;;;;;;;;;;;;;12.47;73.72;98231.25;5115126;28;20018;-66
2023/04/01 13:21:31;;;;;;;;;;;;;;;12.46;73.53;98224.44;5114959;28;19924;-66
2023/04/01 13:24:04;;;;;;;;;;;;;;;12.45;73.12;98223.59;5115133;28;20012;-66
2023/04/01 13:26:38;;;;;;;;;;;;;;;12.48;72.71;98227.78;5114971;28;20335;-66
2023/04/01 13:29:11;;;;;;;;;;;;;;;12.47;72.44;98215.91;5115014;28;19924;-66
2023/04/01 13:31:48;;;;;;;;;;;;;;;12.54;72.31;98222.50;5114744;28;19924;-65
2023/04/01 13:34:30;;;;;;;;;;;;;;;12.56;71.33;98215.59;5114673;28;19930;-65
2023/04/01 13:37:05;;;;;;;;;;;;;;;12.59;70.97;98220.63;5114536;28;19924;-65
2023/04/01 13:39:45;;;;;;;;;;;;;;;12.66;70.66;98216.97;5114429;28;19932;-65